Time;durP1;ratioP1;P1;durP2;ratioP2;P2;SDS_P1;SDS_P2;PMS_P1;PMS_P2;Temp;Humidity;BMP_temperature;BMP_pressure;BME280_temperature;BME280_humidity;BME280_pressure;Samples;Min_cycle;Max_cycle;Signal;HPM_P1;HPM_P2
2024/04/07 00:02:58;;;;;;;8.80;6.30;;;13.20;98.00;;;;;;6206627;28;20474;-58
2024/04/07 00:06:17;;;;;;;5.73;5.20;;;13.20;98.20;;;;;;6204888;28;20472;-57
2024/04/07 00:09:24;;;;;;;5.00;4.60;;;13.10;98.10;;;;;;6204662;28;20451;-58
2024/04/07 00:12:27;;;;;;;6.23;4.97;;;13.10;98.10;;;;;;6204403;28;20944;-57
2024/04/07 00:15:41;;;;;;;4.43;4.10;;;13.10;98.10;;;;;;6202785;28;20440;-57
2024/04/07 00:18:53;;;;;;;4.63;4.20;;;13.10;98.10;;;;;;6206095;28;20456;-58
2024/04/07 00:22:02;;;;;;;16.47;14.37;;;13.10;98.20;;;;;;6206342;28;20554;-57
2024/04/07 00:25:16;;;;;;;7.63;6.87;;;13.00;98.20;;;;;;6206134;28;20472;-56
2024/04/07 00:28:20;;;;;;;4.60;4.17;;;13.00;98.40;;;;;;6205124;28;20740;-58
2024/04/07 00:31:27;;;;;;;6.87;6.20;;;13.00;98.40;;;;;;6204972;28;20475;-58
2024/04/07 00:34:31;;;;;;;6.30;5.70;;;13.00;98.10;;;;;;6205414;28;20446;-57
2024/04/07 00:37:41;;;;;;;6.20;5.70;;;13.00;98.20;;;;;;6205499;28;20448;-57
2024/04/07 00:41:05;;;;;;;7.00;5.10;;;12.90;98.30;;;;;;6205706;28;20545;-57
2024/04/07 00:44:11;;;;;;;5.17;4.67;;;12.90;98.40;;;;;;6202417;28;20954;-57
2024/04/07 00:47:15;;;;;;;7.40;6.80;;;12.80;98.40;;;;;;6206115;28;20537;-57
2024/04/07 00:50:20;;;;;;;7.27;6.67;;;12.80;98.50;;;;;;6204628;28;20946;-57
2024/04/07 00:53:35;;;;;;;6.70;6.10;;;12.80;98.70;;;;;;6203109;28;20480;-56
2024/04/07 00:56:38;;;;;;;7.50;6.80;;;12.80;98.70;;;;;;6205874;28;20446;-57
2024/04/07 00:59:50;;;;;;;7.07;6.47;;;12.70;98.80;;;;;;6205901;28;20971;-57
2024/04/07 01:02:53;;;;;;;9.60;7.10;;;12.70;98.80;;;;;;6210183;28;20907;-57
2024/04/07 01:06:06;;;;;;;8.47;6.23;;;12.70;98.70;;;;;;6209395;28;20982;-57
2024/04/07 01:09:16;;;;;;;6.70;6.10;;;12.70;98.70;;;;;;6209664;28;20465;-58
2024/04/07 01:12:24;;;;;;;7.13;5.90;;;12.60;98.80;;;;;;6211882;28;20597;-58
2024/04/07 01:15:26;;;;;;;6.40;5.60;;;12.50;99.10;;;;;;6213051;28;20440;-57
2024/04/07 01:18:30;;;;;;;6.77;6.20;;;12.50;99.20;;;;;;6211059;28;20462;-58
2024/04/07 01:21:36;;;;;;;6.27;5.67;;;12.50;99.30;;;;;;6210350;28;20491;-58
2024/04/07 01:24:50;;;;;;;6.17;5.43;;;12.40;99.20;;;;;;6210426;28;20455;-57
2024/04/07 01:27:57;;;;;;;5.53;5.03;;;12.40;99.30;;;;;;6209924;28;20445;-58
2024/04/07 01:34:27;;;;;;;6.20;5.60;;;12.30;99.50;;;;;;6209651;28;20451;-57
2024/04/07 01:37:29;;;;;;;6.37;5.77;;;12.30;99.70;;;;;;6208151;28;20460;-57
2024/04/07 01:40:49;;;;;;;6.37;5.63;;;12.20;99.80;;;;;;6199413;28;20794;-57
2024/04/07 01:43:53;;;;;;;6.80;6.07;;;12.20;99.90;;;;;;6183944;28;20478;-57
2024/04/07 01:47:00;;;;;;;7.10;5.87;;;12.10;99.90;;;;;;6174937;28;20534;-58
2024/04/07 01:50:13;;;;;;;7.03;5.97;;;12.10;99.90;;;;;;6208023;28;20448;-57
2024/04/07 01:53:17;;;;;;;7.47;6.70;;;12.10;99.90;;;;;;6207995;28;20475;-58
2024/04/07 01:56:39;;;;;;;5.80;5.30;;;12.10;99.90;;;;;;6207493;28;20444;-57
2024/04/07 01:59:42;;;;;;;5.77;5.33;;;12.00;99.90;;;;;;6207960;28;20449;-57
2024/04/07 02:02:49;;;;;;;5.70;5.30;;;12.00;99.90;;;;;;6207296;28;20472;-57
2024/04/07 02:05:53;;;;;;;5.40;4.87;;;12.00;99.90;;;;;;6208213;28;20499;-58
2024/04/07 02:08:57;;;;;;;5.13;4.70;;;11.90;99.90;;;;;;6203821;28;20472;-56
2024/04/07 02:12:02;;;;;;;5.37;4.60;;;11.90;99.90;;;;;;6202170;28;20975;-57
2024/04/07 02:15:16;;;;;;;7.70;4.83;;;11.90;99.90;;;;;;6205722;28;20548;-57
2024/04/07 02:18:26;;;;;;;5.20;4.70;;;11.90;99.90;;;;;;6185681;28;20460;-58
2024/04/07 02:21:33;;;;;;;5.07;4.63;;;11.80;99.90;;;;;;6188281;28;20538;-56
2024/04/07 02:24:38;;;;;;;6.00;5.50;;;11.80;99.90;;;;;;6186601;28;20787;-57
2024/04/07 02:27:43;;;;;;;7.20;5.63;;;11.80;99.90;;;;;;6195655;28;20503;-57
2024/04/07 02:30:46;;;;;;;9.90;6.77;;;11.80;99.90;;;;;;6184522;28;20473;-57
2024/04/07 02:33:51;;;;;;;6.50;6.00;;;11.80;99.90;;;;;;6198589;28;20476;-57
2024/04/07 02:36:55;;;;;;;5.83;5.30;;;11.80;99.90;;;;;;6199147;28;20457;-57
2024/04/07 02:39:59;;;;;;;5.73;5.30;;;11.70;99.90;;;;;;6207032;28;20452;-58
2024/04/07 02:43:10;;;;;;;6.27;5.67;;;11.70;99.90;;;;;;6207524;28;20537;-57
2024/04/07 02:49:38;;;;;;;6.13;5.53;;;11.70;99.90;;;;;;6207498;28;20440;-57
2024/04/07 02:52:42;;;;;;;6.10;5.50;;;11.70;99.90;;;;;;6207039;28;20537;-57
2024/04/07 02:55:46;;;;;;;5.17;4.77;;;11.60;99.90;;;;;;6206739;28;20901;-58
2024/04/07 02:58:54;;;;;;;5.10;4.70;;;11.60;99.90;;;;;;6190616;28;20492;-58
2024/04/07 03:02:00;;;;;;;10.23;5.67;;;11.60;99.90;;;;;;6206621;28;20478;-57
2024/04/07 03:05:07;;;;;;;5.10;4.70;;;11.50;99.90;;;;;;6206671;28;20448;-59
2024/04/07 03:08:12;;;;;;;5.83;5.30;;;11.40;99.90;;;;;;6206589;28;20494;-57
2024/04/07 03:11:25;;;;;;;5.50;5.00;;;11.40;99.90;;;;;;6206124;28;20846;-59
2024/04/07 03:14:40;;;;;;;5.20;4.70;;;11.40;99.90;;;;;;6206815;28;20524;-58
2024/04/07 03:17:46;;;;;;;5.40;4.90;;;11.40;99.90;;;;;;6206839;28;20455;-59
2024/04/07 03:20:53;;;;;;;7.23;5.20;;;11.40;99.90;;;;;;6206964;28;20472;-58
2024/04/07 03:23:55;;;;;;;7.30;6.17;;;11.40;99.90;;;;;;6205657;28;20471;-57
2024/04/07 03:26:59;;;;;;;5.40;5.00;;;11.40;99.90;;;;;;6199509;28;20614;-57
2024/04/07 03:30:08;;;;;;;5.43;4.93;;;11.30;99.90;;;;;;6184769;28;20457;-58
2024/04/07 03:33:14;;;;;;;7.27;4.90;;;11.30;99.90;;;;;;6216581;28;20479;-57
2024/04/07 03:36:17;;;;;;;4.80;4.40;;;11.40;99.90;;;;;;6233075;28;20435;-57
2024/04/07 03:39:28;;;;;;;10.27;6.30;;;11.40;99.90;;;;;;6225860;28;20449;-58
2024/04/07 03:42:41;;;;;;;5.67;4.97;;;11.30;99.90;;;;;;6206062;28;20490;-57
2024/04/07 03:46:00;;;;;;;7.10;5.40;;;11.30;99.90;;;;;;6205981;28;20480;-57
2024/04/07 03:49:11;;;;;;;6.07;4.67;;;11.30;99.90;;;;;;6205693;28;20760;-57
2024/04/07 03:52:28;;;;;;;5.30;4.70;;;11.30;99.90;;;;;;6205589;28;20478;-57
2024/04/07 03:55:33;;;;;;;5.40;4.80;;;11.30;99.90;;;;;;6205296;28;20452;-57
2024/04/07 03:58:39;;;;;;;5.00;4.60;;;11.30;99.90;;;;;;6203556;28;20455;-57
2024/04/07 04:01:44;;;;;;;5.00;4.70;;;11.30;99.90;;;;;;6207238;28;20475;-57
2024/04/07 04:04:56;;;;;;;5.90;5.40;;;11.30;99.90;;;;;;6204460;28;20896;-57
2024/04/07 04:08:01;;;;;;;5.63;5.17;;;11.30;99.90;;;;;;6203782;28;20503;-57
2024/04/07 04:11:05;;;;;;;6.03;5.43;;;11.30;99.90;;;;;;6205847;28;20456;-57
2024/04/07 04:14:09;;;;;;;8.77;6.40;;;11.20;99.90;;;;;;6204026;28;20481;-57
2024/04/07 04:17:25;;;;;;;7.13;5.60;;;11.20;99.90;;;;;;6205657;28;20448;-58
2024/04/07 04:20:31;;;;;;;5.93;5.43;;;11.20;99.90;;;;;;6205422;28;20797;-57
2024/04/07 04:23:36;;;;;;;7.17;6.47;;;11.20;99.90;;;;;;6205428;28;21018;-57
2024/04/07 04:26:39;;;;;;;7.07;5.60;;;11.20;99.90;;;;;;6196394;28;20488;-57
2024/04/07 04:29:44;;;;;;;5.57;5.17;;;11.20;99.90;;;;;;6196546;28;20449;-58
2024/04/07 04:32:50;;;;;;;6.20;5.60;;;11.20;99.90;;;;;;6198463;28;20840;-57
2024/04/07 04:35:52;;;;;;;9.40;5.53;;;11.20;99.90;;;;;;6186370;28;20853;-57
2024/04/07 04:38:56;;;;;;;5.97;5.47;;;11.20;99.90;;;;;;6185310;28;20453;-57
2024/04/07 04:41:59;;;;;;;5.33;4.60;;;11.30;99.90;;;;;;6190513;28;20775;-57
2024/04/07 04:45:10;;;;;;;5.53;4.90;;;11.40;99.90;;;;;;6201896;28;20512;-57
2024/04/07 04:48:16;;;;;;;11.33;5.10;;;11.70;99.90;;;;;;6194479;28;20472;-58
2024/04/07 04:51:28;;;;;;;6.40;5.70;;;12.00;99.90;;;;;;6210837;28;20466;-57
2024/04/07 04:54:32;;;;;;;5.30;4.57;;;12.30;99.90;;;;;;6210425;28;20454;-57
2024/04/07 04:57:46;;;;;;;5.80;5.30;;;12.60;99.90;;;;;;6209399;28;20814;-57
2024/04/07 05:00:50;;;;;;;10.17;4.77;;;13.00;99.90;;;;;;6197906;28;20456;-58
2024/04/07 05:03:59;;;;;;;4.53;4.13;;;13.20;99.90;;;;;;6184812;28;20948;-57
2024/04/07 05:07:04;;;;;;;5.60;4.43;;;13.70;99.20;;;;;;6184949;28;20480;-58
2024/04/07 05:10:11;;;;;;;7.30;5.10;;;14.20;97.80;;;;;;6185482;28;20510;-57
2024/04/07 05:13:13;;;;;;;8.27;5.87;;;14.80;96.50;;;;;;6184045;28;20801;-57
2024/04/07 05:16:26;;;;;;;6.73;4.90;;;15.70;94.70;;;;;;6184429;28;20460;-58
2024/04/07 05:19:42;;;;;;;7.97;5.10;;;16.80;92.40;;;;;;6185394;28;20456;-57
2024/04/07 05:22:50;;;;;;;6.20;4.00;;;17.80;89.20;;;;;;6186710;28;20824;-57
2024/04/07 05:26:03;;;;;;;7.47;3.50;;;19.00;82.50;;;;;;6199049;28;20210;-57
2024/04/07 05:29:08;;;;;;;4.50;4.10;;;20.50;74.50;;;;;;6200917;28;20210;-57
2024/04/07 05:32:10;;;;;;;6.43;4.70;;;21.70;68.60;;;;;;6208309;28;20232;-59
2024/04/07 05:35:35;;;;;;;5.40;4.07;;;22.50;64.40;;;;;;6208946;28;20255;-58
2024/04/07 05:38:38;;;;;;;4.90;4.50;;;23.10;61.00;;;;;;6186121;28;20200;-57
2024/04/07 05:41:52;;;;;;;6.90;5.17;;;23.30;59.50;;;;;;6184383;28;20222;-57
2024/04/07 05:44:54;;;;;;;6.00;4.50;;;23.40;58.70;;;;;;6184470;28;20202;-58
2024/04/07 05:48:07;;;;;;;5.17;4.70;;;23.40;58.60;;;;;;6188150;28;20251;-59
2024/04/07 05:51:16;;;;;;;5.27;4.77;;;23.80;57.60;;;;;;6208880;28;20622;-58
2024/04/07 05:54:31;;;;;;;5.87;5.27;;;24.40;56.00;;;;;;6208339;28;20211;-57
2024/04/07 05:57:34;;;;;;;5.77;5.20;;;25.10;55.00;;;;;;6208329;28;20201;-57
2024/04/07 06:00:37;;;;;;;6.37;5.20;;;25.80;52.90;;;;;;6208177;28;20227;-58
2024/04/07 06:03:50;;;;;;;5.30;4.80;;;26.50;51.20;;;;;;6203970;28;20225;-59
2024/04/07 06:06:59;;;;;;;5.80;4.80;;;27.20;49.10;;;;;;6207326;28;20220;-59
2024/04/07 06:10:05;;;;;;;5.57;5.07;;;28.00;47.40;;;;;;6207558;28;20219;-58
2024/04/07 06:13:11;;;;;;;4.97;4.50;;;28.90;44.90;;;;;;6207137;28;20323;-58
2024/04/07 06:16:13;;;;;;;4.60;4.20;;;29.50;43.20;;;;;;6208758;28;20208;-58
2024/04/07 06:19:26;;;;;;;5.53;3.90;;;30.40;41.30;;;;;;6198244;28;20215;-59
2024/04/07 06:22:32;;;;;;;3.92;3.60;;;31.40;39.10;;;;;;6223512;28;20255;-59
2024/04/07 06:25:38;;;;;;;4.38;3.97;;;32.80;36.80;;;;;;6203804;28;20197;-59
2024/04/07 06:28:43;;;;;;;4.72;4.32;;;34.30;34.40;;;;;;6186217;28;20236;-59
2024/04/07 06:31:45;;;;;;;4.47;3.70;;;35.90;31.00;;;;;;6183283;28;20223;-58
2024/04/07 06:34:46;;;;;;;6.90;4.40;;;37.40;29.20;;;;;;6182750;28;20689;-60
2024/04/07 06:37:50;;;;;;;4.55;3.60;;;38.90;27.10;;;;;;6204037;28;20204;-59
2024/04/07 06:41:01;;;;;;;3.90;3.60;;;40.10;25.90;;;;;;6206699;28;20205;-59
2024/04/07 06:44:05;;;;;;;4.65;3.58;;;41.20;24.50;;;;;;6207161;28;20225;-59
2024/04/07 06:47:11;;;;;;;5.53;3.28;;;41.80;23.30;;;;;;6200739;28;20293;-59
2024/04/07 06:50:12;;;;;;;4.65;3.80;;;42.20;22.30;;;;;;6207113;28;20490;-59
2024/04/07 06:53:31;;;;;;;5.55;3.85;;;42.50;21.20;;;;;;6207095;28;20232;-59
2024/04/07 06:56:34;;;;;;;3.80;3.40;;;42.00;21.20;;;;;;6211401;28;20208;-59
2024/04/07 06:59:47;;;;;;;2.92;2.72;;;41.40;21.20;;;;;;6213258;28;20207;-59
2024/04/07 07:02:50;;;;;;;9.52;3.03;;;40.90;21.50;;;;;;6207189;28;20284;-60
2024/04/07 07:05:54;;;;;;;3.42;3.15;;;40.50;21.60;;;;;;6180495;28;20220;-60
2024/04/07 07:09:10;;;;;;;4.85;3.22;;;39.80;21.80;;;;;;6182570;28;20268;-59
2024/04/07 07:12:24;;;;;;;3.40;3.10;;;39.10;22.40;;;;;;6181474;28;20739;-61
2024/04/07 07:15:25;;;;;;;4.25;2.83;;;38.60;22.70;;;;;;6184288;28;20590;-59
2024/04/07 07:18:29;;;;;;;4.38;3.17;;;38.40;23.00;;;;;;6197102;28;20211;-60
2024/04/07 07:21:33;;;;;;;4.03;3.00;;;38.80;22.80;;;;;;6179662;28;20244;-59
2024/04/07 07:24:42;;;;;;;4.00;2.70;;;39.60;22.80;;;;;;6182175;28;20210;-59
2024/04/07 07:27:53;;;;;;;4.03;3.30;;;40.70;22.10;;;;;;6182393;28;20517;-59
2024/04/07 07:31:06;;;;;;;3.10;2.90;;;42.00;21.20;;;;;;6181305;28;20201;-59
2024/04/07 07:34:09;;;;;;;4.25;3.50;;;43.20;20.50;;;;;;6181269;28;20601;-58
2024/04/07 07:37:12;;;;;;;3.13;2.92;;;44.30;19.50;;;;;;6176963;28;20618;-61
2024/04/07 07:40:26;;;;;;;4.72;2.83;;;44.60;18.70;;;;;;6192428;28;20210;-59
2024/04/07 07:43:28;;;;;;;3.40;3.10;;;45.00;18.40;;;;;;6205551;28;20702;-61
2024/04/07 07:46:36;;;;;;;3.70;3.08;;;45.50;18.00;;;;;;6205496;28;20310;-59
2024/04/07 07:49:38;;;;;;;4.55;3.40;;;46.00;17.50;;;;;;6175736;28;20205;-59
2024/04/07 07:52:52;;;;;;;3.38;3.08;;;45.80;17.30;;;;;;6205555;28;20220;-59
2024/04/07 07:56:07;;;;;;;4.57;2.95;;;45.20;17.50;;;;;;6206371;28;20212;-59
2024/04/07 07:59:14;;;;;;;2.90;2.70;;;44.30;17.70;;;;;;6205627;28;20206;-58
2024/04/07 08:02:19;;;;;;;3.75;2.83;;;43.80;18.30;;;;;;6205052;28;20551;-59
2024/04/07 08:05:32;;;;;;;4.68;3.55;;;43.60;18.40;;;;;;6206486;28;20215;-59
2024/04/07 08:08:34;;;;;;;5.35;2.97;;;43.80;18.50;;;;;;6205972;28;20545;-59
2024/04/07 08:11:43;;;;;;;3.55;3.00;;;43.90;18.50;;;;;;6205173;28;20231;-58
2024/04/07 08:14:47;;;;;;;3.35;3.05;;;43.80;18.30;;;;;;6207003;28;20226;-58
2024/04/07 08:17:59;;;;;;;3.50;3.00;;;44.10;18.30;;;;;;6229871;28;20204;-59
2024/04/07 08:21:05;;;;;;;4.18;2.95;;;44.90;18.10;;;;;;6215525;28;20537;-59
2024/04/07 08:24:08;;;;;;;3.47;3.17;;;46.00;17.30;;;;;;6205178;28;20234;-59
2024/04/07 08:27:15;;;;;;;2.78;2.53;;;47.10;16.40;;;;;;6205259;28;20228;-60
2024/04/07 08:30:21;;;;;;;3.20;2.55;;;47.80;16.00;;;;;;6206211;28;20203;-58
2024/04/07 08:33:29;;;;;;;2.90;2.58;;;48.30;15.60;;;;;;6206576;28;20227;-60
2024/04/07 08:36:32;;;;;;;2.70;2.50;;;49.10;15.30;;;;;;6207366;28;20205;-59
2024/04/07 08:39:44;;;;;;;3.22;2.60;;;49.40;15.10;;;;;;6203695;28;20579;-59
2024/04/07 08:43:04;;;;;;;3.08;2.63;;;49.90;14.80;;;;;;6215232;28;20261;-59
2024/04/07 08:46:14;;;;;;;2.90;2.65;;;50.40;14.60;;;;;;6223659;28;20211;-60
2024/04/07 08:49:20;;;;;;;2.85;2.65;;;50.90;14.70;;;;;;6226637;28;20226;-60
2024/04/07 08:52:24;;;;;;;2.70;2.50;;;50.00;13.50;;;;;;6221739;28;20240;-59
2024/04/07 08:55:30;;;;;;;2.97;2.78;;;48.30;14.60;;;;;;6222093;28;20214;-60
2024/04/07 08:58:51;;;;;;;2.47;2.28;;;49.60;14.50;;;;;;6213463;28;20261;-59
2024/04/07 09:01:56;;;;;;;3.13;2.58;;;49.40;14.00;;;;;;6211628;28;20227;-59
2024/04/07 09:05:08;;;;;;;2.38;2.17;;;50.40;13.70;;;;;;6229697;28;20261;-58
2024/04/07 09:08:10;;;;;;;3.25;2.95;;;52.00;13.20;;;;;;6229340;28;20274;-59
2024/04/07 09:11:21;;;;;;;4.78;2.50;;;52.90;12.90;;;;;;6237140;28;20207;-58
2024/04/07 09:14:33;;;;;;;2.85;2.55;;;53.00;12.50;;;;;;6253115;28;20196;-59
2024/04/07 09:17:46;;;;;;;3.13;2.80;;;52.40;12.20;;;;;;6232099;28;20226;-59
2024/04/07 09:20:54;;;;;;;3.63;2.85;;;49.40;13.50;;;;;;6205471;28;20246;-59
2024/04/07 09:24:00;;;;;;;3.05;2.85;;;50.30;13.30;;;;;;6199171;28;20228;-59
2024/04/07 09:27:06;;;;;;;3.90;2.85;;;50.90;13.10;;;;;;6205695;28;20566;-59
2024/04/07 09:30:24;;;;;;;2.50;2.30;;;50.10;13.40;;;;;;6193644;28;20209;-59
2024/04/07 09:33:29;;;;;;;2.90;2.70;;;50.80;13.10;;;;;;6189464;28;20288;-60
2024/04/07 09:36:33;;;;;;;3.88;2.60;;;51.70;12.90;;;;;;6194903;28;20279;-58
2024/04/07 09:39:40;;;;;;;3.15;2.95;;;51.20;13.00;;;;;;6202669;28;20194;-59
2024/04/07 09:42:43;;;;;;;3.58;3.28;;;52.10;13.00;;;;;;6190022;28;20221;-59
2024/04/07 09:45:52;;;;;;;3.80;3.50;;;53.90;12.30;;;;;;6195804;28;20207;-59
2024/04/07 09:49:07;;;;;;;3.67;3.38;;;53.30;12.30;;;;;;6196970;28;20276;-59
2024/04/07 09:52:15;;;;;;;3.72;3.42;;;53.30;12.60;;;;;;6194442;28;20226;-59
2024/04/07 09:55:21;;;;;;;3.72;3.38;;;53.80;12.40;;;;;;6192072;28;20220;-59
2024/04/07 09:58:25;;;;;;;3.60;3.30;;;52.80;12.60;;;;;;6201325;28;20219;-59
2024/04/07 10:01:45;;;;;;;3.90;3.60;;;49.20;14.50;;;;;;6208295;28;20632;-58
2024/04/07 10:04:48;;;;;;;3.80;3.50;;;48.60;15.40;;;;;;6208396;28;20218;-58
2024/04/07 10:08:00;;;;;;;4.13;3.72;;;50.00;15.10;;;;;;6208363;28;20242;-58
2024/04/07 10:11:15;;;;;;;3.85;3.55;;;49.70;15.30;;;;;;6207623;28;20664;-60
2024/04/07 10:14:22;;;;;;;3.63;3.33;;;50.30;15.30;;;;;;6199532;28;20271;-59
2024/04/07 10:17:38;;;;;;;5.35;4.25;;;51.60;14.50;;;;;;6184162;28;20247;-59
2024/04/07 10:20:44;;;;;;;3.95;3.50;;;52.30;14.60;;;;;;6176463;28;20205;-59
2024/04/07 10:23:46;;;;;;;3.50;3.30;;;53.20;14.00;;;;;;6183381;28;20228;-59
2024/04/07 10:26:53;;;;;;;4.57;3.67;;;52.50;14.40;;;;;;6190289;28;20204;-60
2024/04/07 10:29:59;;;;;;;5.22;4.78;;;52.30;14.40;;;;;;6188902;28;20216;-59
2024/04/07 10:33:15;;;;;;;4.65;3.30;;;54.00;13.30;;;;;;6181945;28;20222;-58
2024/04/07 10:36:21;;;;;;;5.25;3.38;;;52.60;14.00;;;;;;6183373;28;20213;-59
2024/04/07 10:39:35;;;;;;;3.80;3.42;;;51.80;14.00;;;;;;6182960;28;20199;-58
2024/04/07 10:42:38;;;;;;;4.10;3.70;;;51.70;13.90;;;;;;6182598;28;20236;-58
2024/04/07 10:45:46;;;;;;;4.43;2.88;;;51.30;14.10;;;;;;6183095;28;20215;-58
2024/04/07 10:48:53;;;;;;;3.67;3.15;;;52.50;13.00;;;;;;6182849;28;20226;-58
2024/04/07 10:51:56;;;;;;;3.55;3.15;;;53.20;12.60;;;;;;6194827;28;20351;-59
2024/04/07 10:55:00;;;;;;;3.50;3.30;;;54.00;12.70;;;;;;6201262;28;20209;-59
2024/04/07 10:58:04;;;;;;;4.03;3.72;;;53.90;13.00;;;;;;6194856;28;20216;-59
2024/04/07 11:01:09;;;;;;;3.78;3.05;;;52.60;13.00;;;;;;6194895;28;20221;-59
2024/04/07 11:04:19;;;;;;;3.45;3.15;;;51.20;13.40;;;;;;6198002;28;20211;-58
2024/04/07 11:07:28;;;;;;;3.53;3.22;;;48.20;14.50;;;;;;6206813;28;20205;-58
2024/04/07 11:10:42;;;;;;;9.77;9.02;;;46.00;15.90;;;;;;6200711;28;20266;-59
2024/04/07 11:13:56;;;;;;;4.57;2.88;;;47.60;15.90;;;;;;6203067;28;20218;-59
2024/04/07 11:17:03;;;;;;;5.90;3.65;;;49.20;15.00;;;;;;6204308;28;20232;-60
2024/04/07 11:23:41;;;;;;;3.20;3.00;;;46.90;15.80;;;;;;6184055;28;20231;-58
2024/04/07 11:26:48;;;;;;;2.80;2.60;;;46.20;15.70;;;;;;6194606;28;20201;-60
2024/04/07 11:29:57;;;;;;;3.75;3.45;;;45.60;15.90;;;;;;6182123;28;20225;-59
2024/04/07 11:33:03;;;;;;;4.28;3.65;;;44.50;16.70;;;;;;6188419;28;20228;-59
2024/04/07 11:36:13;;;;;;;3.35;3.05;;;43.30;17.60;;;;;;6181990;28;20303;-59
2024/04/07 11:39:16;;;;;;;2.85;2.65;;;43.80;17.30;;;;;;6186333;28;20212;-59
2024/04/07 11:42:21;;;;;;;3.25;3.05;;;43.50;17.50;;;;;;6204003;28;20275;-59
2024/04/07 11:45:28;;;;;;;3.90;3.55;;;42.40;18.50;;;;;;6206099;28;20525;-58
2024/04/07 11:48:32;;;;;;;3.65;3.35;;;40.90;20.00;;;;;;6198437;28;20231;-59
2024/04/07 11:51:37;;;;;;;3.42;3.13;;;41.40;19.50;;;;;;6181252;28;20647;-59
2024/04/07 11:54:44;;;;;;;3.33;3.10;;;41.50;19.20;;;;;;6181286;28;20612;-58
2024/04/07 11:57:46;;;;;;;3.30;3.10;;;41.40;19.30;;;;;;6191401;28;20542;-59
2024/04/07 12:00:52;;;;;;;4.40;3.10;;;40.80;19.20;;;;;;6199652;28;20218;-59
2024/04/07 12:03:58;;;;;;;3.55;3.25;;;40.40;19.70;;;;;;6191053;28;20638;-59
2024/04/07 12:07:05;;;;;;;4.32;3.33;;;40.20;19.90;;;;;;6185709;28;20771;-58
2024/04/07 12:10:09;;;;;;;3.60;3.30;;;40.10;20.20;;;;;;6200540;28;20286;-59
2024/04/07 12:13:12;;;;;;;5.22;3.20;;;40.00;20.30;;;;;;6202102;28;20687;-59
2024/04/07 12:16:18;;;;;;;3.53;3.22;;;39.10;21.10;;;;;;6181467;28;20215;-59
2024/04/07 12:19:21;;;;;;;5.00;3.50;;;38.50;21.50;;;;;;6194324;28;20225;-58
2024/04/07 12:22:38;;;;;;;3.70;3.30;;;37.70;22.20;;;;;;6196057;28;20236;-59
2024/04/07 12:25:43;;;;;;;3.15;2.85;;;37.20;22.30;;;;;;6205732;28;20212;-58
2024/04/07 12:28:49;;;;;;;2.90;2.67;;;36.60;22.20;;;;;;6203600;28;20691;-59
2024/04/07 12:31:51;;;;;;;3.35;2.60;;;35.80;22.30;;;;;;6203822;28;20228;-58
2024/04/07 12:35:04;;;;;;;3.85;2.72;;;35.70;22.70;;;;;;6189810;28;20271;-58
2024/04/07 12:38:11;;;;;;;3.38;3.08;;;34.90;23.20;;;;;;6180918;28;20205;-58
2024/04/07 12:41:14;;;;;;;2.67;2.47;;;34.90;23.60;;;;;;6181907;28;20209;-58
2024/04/07 12:44:20;;;;;;;3.35;3.08;;;34.80;23.80;;;;;;6199076;28;20209;-59
2024/04/07 12:47:25;;;;;;;4.60;2.92;;;34.80;24.30;;;;;;6205414;28;20213;-59
2024/04/07 12:50:34;;;;;;;3.97;3.33;;;34.60;24.30;;;;;;6204975;28;20222;-58
2024/04/07 12:53:37;;;;;;;2.67;2.45;;;34.20;24.70;;;;;;6204778;28;20232;-59
2024/04/07 12:56:42;;;;;;;3.50;3.17;;;33.80;24.20;;;;;;6206627;28;20220;-58
2024/04/07 12:59:46;;;;;;;2.80;2.60;;;33.20;24.80;;;;;;6209713;28;20200;-59
2024/04/07 13:02:51;;;;;;;2.78;2.58;;;32.90;24.70;;;;;;6209106;28;20652;-60
2024/04/07 13:05:54;;;;;;;3.00;2.70;;;32.50;25.30;;;;;;6207407;28;20263;-58
2024/04/07 13:09:14;;;;;;;5.38;3.33;;;32.30;25.90;;;;;;6199867;28;20232;-57
2024/04/07 13:12:16;;;;;;;3.08;2.88;;;32.10;26.40;;;;;;6209087;28;20234;-59
2024/04/07 13:15:20;;;;;;;3.75;3.05;;;31.40;27.10;;;;;;6209933;28;20200;-58
2024/04/07 13:18:26;;;;;;;3.30;3.03;;;31.40;27.10;;;;;;6209449;28;20664;-59
2024/04/07 13:21:32;;;;;;;3.85;3.33;;;30.80;28.60;;;;;;6209224;28;20254;-58
2024/04/07 13:24:37;;;;;;;4.03;3.70;;;30.60;28.80;;;;;;6211447;28;20256;-59
2024/04/07 13:27:51;;;;;;;4.65;3.35;;;30.60;29.20;;;;;;6211253;28;20207;-58
2024/04/07 13:30:56;;;;;;;3.50;3.22;;;30.50;29.60;;;;;;6211479;28;20200;-59
2024/04/07 13:34:09;;;;;;;3.63;3.08;;;30.50;30.00;;;;;;6205945;28;20231;-59
2024/04/07 13:37:20;;;;;;;3.45;3.25;;;30.20;30.00;;;;;;6198513;28;20205;-60
2024/04/07 13:40:27;;;;;;;3.63;3.33;;;29.90;31.00;;;;;;6191739;28;20220;-60
2024/04/07 13:43:29;;;;;;;4.80;4.20;;;29.80;31.10;;;;;;6196185;28;20574;-60
2024/04/07 13:46:34;;;;;;;3.10;2.80;;;29.70;30.80;;;;;;6199242;28;20215;-59
2024/04/07 13:49:45;;;;;;;3.55;3.25;;;29.50;31.20;;;;;;6204638;28;20228;-59
2024/04/07 13:52:50;;;;;;;4.30;3.90;;;29.40;31.30;;;;;;6194558;28;20224;-59
2024/04/07 13:55:56;;;;;;;4.38;4.03;;;29.40;31.80;;;;;;6193704;28;20205;-58
2024/04/07 13:59:00;;;;;;;4.03;3.72;;;29.20;32.40;;;;;;6197379;28;20209;-59
2024/04/07 14:02:06;;;;;;;3.10;2.90;;;29.10;32.10;;;;;;6192219;28;20680;-58
2024/04/07 14:05:09;;;;;;;6.07;3.60;;;29.00;32.60;;;;;;6189006;28;20217;-58
2024/04/07 14:08:21;;;;;;;3.47;3.17;;;28.80;33.40;;;;;;6187925;28;20241;-59
2024/04/07 14:11:30;;;;;;;4.97;3.90;;;28.40;34.00;;;;;;6183234;28;20197;-58
2024/04/07 14:14:33;;;;;;;3.50;3.20;;;28.30;33.30;;;;;;6178008;28;20205;-58
2024/04/07 14:17:45;;;;;;;4.43;3.37;;;28.30;33.60;;;;;;6178027;28;20220;-58
2024/04/07 14:20:51;;;;;;;4.10;3.70;;;28.20;33.60;;;;;;6195254;28;20213;-58
2024/04/07 14:23:53;;;;;;;3.47;3.10;;;28.10;33.60;;;;;;6229743;28;20724;-59
2024/04/07 14:26:57;;;;;;;3.63;3.20;;;27.90;33.50;;;;;;6230245;28;20199;-58
2024/04/07 14:30:11;;;;;;;3.67;3.37;;;27.70;34.40;;;;;;6230471;28;20635;-59
2024/04/07 14:33:17;;;;;;;5.20;4.30;;;27.60;34.80;;;;;;6231464;28;20228;-58
2024/04/07 14:36:20;;;;;;;3.53;3.23;;;27.40;34.80;;;;;;6231552;28;20820;-58
2024/04/07 14:39:33;;;;;;;3.97;3.67;;;27.30;34.50;;;;;;6228196;28;20200;-59
2024/04/07 14:42:36;;;;;;;3.87;3.00;;;27.30;34.50;;;;;;6224066;28;20220;-59
2024/04/07 14:45:38;;;;;;;3.50;3.00;;;27.30;34.40;;;;;;6231601;28;20269;-59
2024/04/07 14:48:39;;;;;;;5.97;3.83;;;27.30;33.70;;;;;;6222601;28;20592;-58
2024/04/07 14:51:42;;;;;;;4.73;3.97;;;27.30;34.30;;;;;;6206960;28;20232;-58
2024/04/07 14:54:47;;;;;;;7.73;4.20;;;27.30;37.20;;;;;;6215905;28;20214;-59
2024/04/07 14:58:05;;;;;;;3.47;3.27;;;27.30;36.60;;;;;;6230575;28;20200;-58
2024/04/07 15:01:17;;;;;;;3.60;3.30;;;27.20;36.00;;;;;;6231154;28;20200;-59
2024/04/07 15:04:21;;;;;;;3.63;3.33;;;27.10;36.40;;;;;;6231780;28;20200;-59
2024/04/07 15:07:27;;;;;;;3.83;3.43;;;27.10;36.50;;;;;;6231284;28;20226;-59
2024/04/07 15:10:31;;;;;;;3.10;2.90;;;27.10;36.00;;;;;;6231010;28;20299;-59
2024/04/07 15:13:37;;;;;;;4.20;3.10;;;27.10;35.90;;;;;;6231113;28;20227;-58
2024/04/07 15:16:38;;;;;;;3.33;3.03;;;27.00;35.50;;;;;;6231524;28;20574;-59
2024/04/07 15:19:45;;;;;;;6.40;4.60;;;26.90;35.90;;;;;;6231172;28;20199;-58
2024/04/07 15:22:48;;;;;;;4.00;3.60;;;26.90;36.90;;;;;;6214135;28;20568;-58
2024/04/07 15:25:57;;;;;;;4.60;4.20;;;26.80;38.30;;;;;;6206588;28;20208;-59
2024/04/07 15:29:14;;;;;;;5.70;3.50;;;26.80;39.20;;;;;;6190064;28;20238;-58
2024/04/07 15:32:26;;;;;;;5.80;3.70;;;26.80;39.10;;;;;;6205680;28;20278;-59
2024/04/07 15:35:28;;;;;;;4.00;3.70;;;26.70;39.00;;;;;;6206750;28;20274;-59
2024/04/07 15:38:34;;;;;;;4.30;4.00;;;26.70;39.60;;;;;;6206722;28;20204;-59
2024/04/07 15:41:47;;;;;;;4.07;3.63;;;26.60;39.60;;;;;;6205819;28;20221;-58
2024/04/07 15:45:05;;;;;;;4.23;3.57;;;26.60;39.60;;;;;;6196694;28;20510;-59
2024/04/07 15:48:12;;;;;;;3.63;3.37;;;26.50;40.30;;;;;;6181550;28;20801;-58
2024/04/07 15:51:18;;;;;;;6.80;4.07;;;26.50;40.20;;;;;;6185238;28;20215;-58
2024/04/07 15:54:21;;;;;;;3.57;3.27;;;26.40;40.40;;;;;;6181978;28;20578;-58
2024/04/07 15:57:28;;;;;;;3.80;3.50;;;26.40;40.70;;;;;;6181751;28;20280;-58
2024/04/07 16:00:33;;;;;;;3.90;3.23;;;26.30;41.40;;;;;;6182878;28;20213;-59
2024/04/07 16:03:38;;;;;;;3.30;3.00;;;26.30;41.60;;;;;;6182703;28;20221;-58
2024/04/07 16:06:41;;;;;;;4.33;3.83;;;26.30;41.50;;;;;;6182532;28;20271;-58
2024/04/07 16:09:47;;;;;;;3.80;3.50;;;26.20;41.10;;;;;;6181301;28;20229;-58
2024/04/07 16:12:59;;;;;;;3.93;3.63;;;26.20;41.60;;;;;;6180546;28;20324;-58
2024/04/07 16:16:05;;;;;;;6.77;3.70;;;26.10;42.50;;;;;;6181210;28;20205;-59
2024/04/07 16:19:11;;;;;;;4.80;4.37;;;26.10;44.10;;;;;;6181500;28;20193;-58
2024/04/07 16:22:14;;;;;;;5.43;3.77;;;26.00;44.30;;;;;;6180302;28;20275;-58
2024/04/07 16:25:18;;;;;;;4.10;3.80;;;25.80;44.30;;;;;;6180950;28;20205;-58